Time;durP1;ratioP1;P1;durP2;ratioP2;P2;SDS_P1;SDS_P2;PMS_P1;PMS_P2;Temp;Humidity;BMP_temperature;BMP_pressure;BME280_temperature;BME280_humidity;BME280_pressure;Samples;Min_cycle;Max_cycle;Signal;HPM_P1;HPM_P2
2022/07/25 00:01:54;;;;;;;10.57;9.57;;;24.20;81.00;;;;;;7354897;19;20380;-53
2022/07/25 00:04:24;;;;;;;9.70;8.70;;;24.10;80.70;;;;;;7357483;19;20372;-52
2022/07/25 00:06:53;;;;;;;11.90;10.70;;;24.10;81.40;;;;;;7357457;19;20377;-53
2022/07/25 00:09:28;;;;;;;11.50;9.43;;;23.90;82.10;;;;;;7355684;19;20399;-52
2022/07/25 00:11:57;;;;;;;10.73;9.63;;;23.70;83.10;;;;;;7353445;19;20923;-52
2022/07/25 00:14:27;;;;;;;11.03;9.90;;;23.70;83.60;;;;;;7354744;19;20365;-52
2022/07/25 00:16:57;;;;;;;11.10;9.70;;;23.50;84.50;;;;;;7359450;19;20388;-52
2022/07/25 00:19:26;;;;;;;9.87;8.50;;;23.40;86.30;;;;;;7355432;19;20397;-53
2022/07/25 00:21:58;;;;;;;11.07;9.57;;;23.70;84.80;;;;;;7358764;19;20416;-52
2022/07/25 00:24:30;;;;;;;9.87;8.80;;;23.60;84.20;;;;;;7349967;19;20413;-53
2022/07/25 00:26:59;;;;;;;10.40;9.30;;;23.50;86.00;;;;;;7358082;19;20773;-52
2022/07/25 00:29:29;;;;;;;10.90;9.80;;;23.40;86.40;;;;;;7353169;19;20411;-53
2022/07/25 00:31:58;;;;;;;10.67;9.57;;;23.40;85.90;;;;;;7378437;19;20780;-52
2022/07/25 00:34:28;;;;;;;10.93;9.83;;;23.40;87.00;;;;;;7355376;19;20369;-52
2022/07/25 00:37:00;;;;;;;9.93;8.93;;;23.30;87.80;;;;;;7359733;19;21009;-53
2022/07/25 00:39:32;;;;;;;10.27;9.23;;;23.00;89.60;;;;;;7341139;19;20388;-52
2022/07/25 00:42:02;;;;;;;10.77;9.30;;;23.20;88.50;;;;;;7359906;19;20437;-52
2022/07/25 00:44:35;;;;;;;11.20;10.00;;;23.40;87.10;;;;;;7349342;19;20375;-53
2022/07/25 00:47:04;;;;;;;13.77;8.80;;;23.40;85.20;;;;;;7372905;19;20972;-52
2022/07/25 00:49:34;;;;;;;9.87;8.37;;;23.60;83.60;;;;;;7356041;19;20391;-48
2022/07/25 00:52:03;;;;;;;9.77;8.77;;;23.40;84.20;;;;;;7359395;19;20946;-47
2022/07/25 00:54:36;;;;;;;10.30;9.20;;;23.00;87.50;;;;;;7361195;19;20933;-47
2022/07/25 00:57:06;;;;;;;10.40;9.13;;;22.80;89.40;;;;;;7351210;19;20497;-48
2022/07/25 00:59:35;;;;;;;10.30;9.30;;;23.10;87.40;;;;;;7349967;19;20732;-48
2022/07/25 01:02:07;;;;;;;9.73;8.73;;;23.40;85.40;;;;;;7349739;19;21117;-48
2022/07/25 01:04:36;;;;;;;8.83;7.70;;;23.50;84.90;;;;;;7358930;19;20422;-48
2022/07/25 01:07:06;;;;;;;11.43;10.10;;;23.20;86.10;;;;;;7353327;19;20376;-48
2022/07/25 01:09:41;;;;;;;11.33;9.87;;;23.30;86.40;;;;;;7361017;19;20412;-48
2022/07/25 01:12:13;;;;;;;9.50;8.60;;;23.30;86.80;;;;;;7349155;19;20686;-48
2022/07/25 01:14:42;;;;;;;10.67;9.53;;;23.40;85.90;;;;;;7362143;19;20372;-48
2022/07/25 01:17:12;;;;;;;11.60;9.40;;;23.50;85.50;;;;;;7351939;19;20384;-48
2022/07/25 01:19:45;;;;;;;11.53;10.20;;;23.60;85.30;;;;;;7355202;19;20364;-53
2022/07/25 01:22:17;;;;;;;9.93;9.00;;;23.70;84.20;;;;;;7358171;19;21139;-52
2022/07/25 01:24:46;;;;;;;10.57;9.50;;;23.40;85.40;;;;;;7358017;19;20451;-52
2022/07/25 01:27:16;;;;;;;10.07;9.07;;;23.60;84.40;;;;;;7347080;19;20972;-52
2022/07/25 01:29:45;;;;;;;10.50;9.40;;;23.70;83.60;;;;;;7362870;19;21096;-52
2022/07/25 01:32:15;;;;;;;10.73;8.60;;;23.50;85.00;;;;;;7351558;19;21036;-52
2022/07/25 01:34:44;;;;;;;10.70;9.10;;;23.00;88.50;;;;;;7360154;19;20915;-52
2022/07/25 01:37:18;;;;;;;10.03;9.03;;;23.10;87.10;;;;;;7363197;19;20388;-53
2022/07/25 01:39:48;;;;;;;9.10;8.20;;;23.30;85.60;;;;;;7349774;19;21009;-53
2022/07/25 01:42:17;;;;;;;9.67;8.70;;;23.20;86.50;;;;;;7352751;19;20440;-52
2022/07/25 01:44:47;;;;;;;8.90;8.10;;;23.30;85.50;;;;;;7362180;19;20439;-53
2022/07/25 01:47:17;;;;;;;9.90;9.00;;;23.40;85.00;;;;;;7359072;19;21191;-53
2022/07/25 01:49:47;;;;;;;10.77;8.93;;;23.20;85.70;;;;;;7364509;19;20400;-47
2022/07/25 01:52:21;;;;;;;9.50;8.50;;;23.10;86.70;;;;;;7351452;19;20399;-48
2022/07/25 01:54:51;;;;;;;10.77;9.67;;;23.20;86.10;;;;;;7351627;19;20376;-49
2022/07/25 01:57:20;;;;;;;10.10;9.00;;;23.20;86.70;;;;;;7352938;19;20419;-48
2022/07/25 01:59:49;;;;;;;12.30;9.57;;;23.10;87.80;;;;;;7362789;19;20431;-48
2022/07/25 02:02:19;;;;;;;10.53;9.43;;;23.10;86.60;;;;;;7359827;19;20376;-48
2022/07/25 02:04:48;;;;;;;9.53;8.53;;;22.90;88.30;;;;;;7358865;19;24946;-47
2022/07/25 02:07:20;;;;;;;12.57;9.80;;;22.80;89.90;;;;;;7354378;19;20376;-47
2022/07/25 02:09:50;;;;;;;9.30;8.40;;;22.60;90.90;;;;;;7360405;19;20368;-47
2022/07/25 02:12:20;;;;;;;10.43;9.43;;;22.60;90.50;;;;;;7365509;19;20790;-47
2022/07/25 02:14:52;;;;;;;13.50;8.80;;;22.80;90.40;;;;;;7357328;19;20372;-48
2022/07/25 02:17:23;;;;;;;11.63;9.10;;;22.90;88.30;;;;;;7351118;19;20380;-48
2022/07/25 02:19:52;;;;;;;10.77;9.67;;;23.10;88.10;;;;;;7351807;19;20369;-52
2022/07/25 02:22:24;;;;;;;11.20;9.50;;;23.10;88.60;;;;;;7362362;19;20372;-52
2022/07/25 02:24:54;;;;;;;10.77;9.13;;;23.00;88.70;;;;;;7351916;19;20378;-52
2022/07/25 02:27:23;;;;;;;10.10;9.03;;;22.70;90.40;;;;;;7359667;19;20392;-52
2022/07/25 02:29:53;;;;;;;11.10;9.50;;;22.40;91.50;;;;;;7353700;19;20839;-52
2022/07/25 02:32:22;;;;;;;10.63;9.53;;;22.40;91.60;;;;;;7350468;19;21028;-52
2022/07/25 02:34:51;;;;;;;10.77;9.70;;;22.50;91.80;;;;;;7348457;19;20376;-52
2022/07/25 02:37:24;;;;;;;12.03;9.13;;;22.50;91.80;;;;;;7352670;19;20981;-52
2022/07/25 02:39:53;;;;;;;10.13;9.03;;;22.50;91.30;;;;;;7361279;19;20443;-51
2022/07/25 02:42:23;;;;;;;11.90;9.80;;;22.40;91.30;;;;;;7350598;19;20377;-51
2022/07/25 02:44:52;;;;;;;10.47;9.40;;;22.10;92.70;;;;;;7366001;19;20890;-52
2022/07/25 02:47:22;;;;;;;9.50;8.50;;;22.20;92.80;;;;;;7349738;19;20382;-52
2022/07/25 02:49:51;;;;;;;9.73;8.73;;;22.30;92.60;;;;;;7356509;19;20372;-52
2022/07/25 02:52:23;;;;;;;10.17;8.93;;;22.30;92.60;;;;;;7361941;19;20435;-52
2022/07/25 02:54:53;;;;;;;10.47;8.23;;;22.10;93.00;;;;;;7363289;19;20368;-52
2022/07/25 02:57:22;;;;;;;11.50;9.33;;;22.00;93.10;;;;;;7357599;19;20910;-52
2022/07/25 02:59:52;;;;;;;10.60;9.60;;;22.30;93.00;;;;;;7346446;19;20412;-53
2022/07/25 03:02:21;;;;;;;11.73;10.30;;;22.50;92.10;;;;;;7358187;19;20471;-52
2022/07/25 03:04:53;;;;;;;9.60;8.60;;;22.60;91.60;;;;;;7356863;19;20790;-52
2022/07/25 03:07:25;;;;;;;10.37;8.60;;;22.40;91.60;;;;;;7358482;19;20372;-52
2022/07/25 03:09:54;;;;;;;10.10;9.10;;;22.00;93.30;;;;;;7350014;19;20970;-52
2022/07/25 03:12:26;;;;;;;10.20;8.13;;;22.00;92.90;;;;;;7364067;19;20364;-52
2022/07/25 03:14:56;;;;;;;9.80;8.80;;;22.10;92.30;;;;;;7353174;19;20866;-52
2022/07/25 03:17:25;;;;;;;10.93;8.70;;;22.30;91.70;;;;;;7350303;19;20369;-52
2022/07/25 03:19:54;;;;;;;9.77;8.77;;;22.40;91.30;;;;;;7353848;19;20872;-52
2022/07/25 03:22:27;;;;;;;10.30;8.27;;;22.20;91.90;;;;;;7375075;19;20384;-52
2022/07/25 03:24:57;;;;;;;9.73;8.67;;;21.80;93.20;;;;;;7386549;19;20901;-52
2022/07/25 03:27:29;;;;;;;10.83;9.73;;;22.00;92.40;;;;;;7353330;19;20391;-52
2022/07/25 03:29:59;;;;;;;10.63;8.87;;;22.10;91.60;;;;;;7351996;19;20949;-52
2022/07/25 03:32:28;;;;;;;10.10;8.63;;;22.20;91.20;;;;;;7353757;19;21175;-52
2022/07/25 03:34:58;;;;;;;9.47;8.47;;;22.30;90.90;;;;;;7360063;19;20364;-52
2022/07/25 03:37:30;;;;;;;8.00;7.20;;;22.20;91.40;;;;;;7354192;19;21044;-51
2022/07/25 03:40:02;;;;;;;11.20;8.70;;;22.10;91.70;;;;;;7354693;19;20395;-52
2022/07/25 03:42:31;;;;;;;12.20;10.30;;;22.10;91.90;;;;;;7352334;19;20923;-52
2022/07/25 03:45:04;;;;;;;12.20;8.77;;;22.10;91.20;;;;;;7357251;19;20975;-52
2022/07/25 03:47:33;;;;;;;8.90;7.90;;;21.90;92.00;;;;;;7348084;19;21101;-51
2022/07/25 03:50:03;;;;;;;10.00;8.10;;;22.00;92.30;;;;;;7356966;19;20372;-52
2022/07/25 03:52:37;;;;;;;9.43;8.53;;;22.10;91.50;;;;;;7355107;19;20704;-52
2022/07/25 03:55:07;;;;;;;9.60;8.70;;;21.90;91.70;;;;;;7355341;19;20368;-52
2022/07/25 03:57:37;;;;;;;9.10;8.20;;;22.20;91.00;;;;;;7350414;19;20412;-53
2022/07/25 04:00:09;;;;;;;8.97;8.07;;;22.20;90.90;;;;;;7353486;19;20786;-51
2022/07/25 04:02:39;;;;;;;9.20;8.33;;;22.10;91.50;;;;;;7357766;19;20375;-51
2022/07/25 04:05:10;;;;;;;11.10;10.00;;;22.00;91.90;;;;;;7344234;19;20407;-52
2022/07/25 04:07:42;;;;;;;9.17;8.23;;;22.00;92.40;;;;;;7355204;19;20368;-52
2022/07/25 04:10:13;;;;;;;10.60;8.47;;;22.00;92.40;;;;;;7349519;19;20893;-52
2022/07/25 04:12:42;;;;;;;10.67;9.50;;;22.20;91.70;;;;;;7354836;19;20420;-52
2022/07/25 04:15:12;;;;;;;10.17;9.20;;;22.30;91.10;;;;;;7356104;19;20449;-53
2022/07/25 04:17:44;;;;;;;10.50;9.40;;;22.50;90.80;;;;;;7358275;19;20372;-52
2022/07/25 04:20:14;;;;;;;9.40;8.30;;;22.40;90.80;;;;;;7351385;19;20919;-53
2022/07/25 04:22:46;;;;;;;9.90;8.90;;;22.50;90.60;;;;;;7359128;19;22886;-52
2022/07/25 04:25:16;;;;;;;12.57;9.30;;;22.50;90.00;;;;;;7354273;19;20451;-52
2022/07/25 04:27:46;;;;;;;10.53;9.43;;;22.60;90.00;;;;;;7361042;19;20383;-53
2022/07/25 04:30:16;;;;;;;10.40;9.20;;;22.60;89.60;;;;;;7355719;19;20395;-53
2022/07/25 04:32:47;;;;;;;9.43;8.43;;;22.50;90.30;;;;;;7362022;19;20367;-50
2022/07/25 04:35:17;;;;;;;10.63;9.07;;;22.60;89.40;;;;;;7362870;19;20391;-50
2022/07/25 04:37:49;;;;;;;9.60;8.30;;;22.40;90.50;;;;;;7349917;19;20387;-50
2022/07/25 04:40:19;;;;;;;9.90;8.90;;;22.30;90.70;;;;;;7356080;19;20400;-50
2022/07/25 04:42:48;;;;;;;9.13;8.23;;;22.50;90.80;;;;;;7354053;19;20411;-50
2022/07/25 04:45:18;;;;;;;10.87;8.57;;;22.50;90.40;;;;;;7362504;19;21073;-50
2022/07/25 04:47:47;;;;;;;8.70;7.80;;;22.50;90.50;;;;;;7361903;19;20427;-50
2022/07/25 04:50:17;;;;;;;10.47;8.97;;;22.50;90.40;;;;;;7359328;19;20380;-51
2022/07/25 04:52:49;;;;;;;10.00;8.90;;;22.40;90.70;;;;;;7355636;19;21632;-50
2022/07/25 04:55:19;;;;;;;11.90;9.27;;;22.70;90.50;;;;;;7356803;19;20408;-51
2022/07/25 04:57:49;;;;;;;17.60;10.87;;;22.80;90.60;;;;;;7359598;19;20435;-50
2022/07/25 05:00:19;;;;;;;9.43;8.27;;;23.00;90.20;;;;;;7355642;19;21149;-45
2022/07/25 05:02:51;;;;;;;11.00;9.83;;;23.00;89.40;;;;;;7365507;19;21065;-45
2022/07/25 05:05:21;;;;;;;11.73;9.63;;;22.90;89.30;;;;;;7356774;19;20376;-45
2022/07/25 05:07:58;;;;;;;9.50;8.50;;;23.00;89.80;;;;;;7366175;19;20376;-45
2022/07/25 05:10:29;;;;;;;10.63;9.53;;;23.00;89.10;;;;;;7362717;19;20368;-45
2022/07/25 05:12:59;;;;;;;9.90;8.90;;;23.00;89.60;;;;;;7366210;19;20376;-45
2022/07/25 05:15:28;;;;;;;11.13;9.93;;;22.90;90.10;;;;;;7356457;19;20932;-45
2022/07/25 05:17:58;;;;;;;11.43;10.23;;;23.00;90.10;;;;;;7357431;19;20380;-45
2022/07/25 05:20:30;;;;;;;10.80;9.17;;;22.90;90.40;;;;;;7359574;19;20432;-45
2022/07/25 05:23:02;;;;;;;11.27;9.33;;;23.00;90.30;;;;;;7354839;19;20372;-46
2022/07/25 05:25:32;;;;;;;9.40;8.43;;;23.10;89.80;;;;;;7373947;19;20395;-46
2022/07/25 05:28:01;;;;;;;12.00;10.37;;;23.10;89.80;;;;;;7361978;19;20368;-45
2022/07/25 05:30:31;;;;;;;10.73;9.60;;;23.10;88.70;;;;;;7353617;19;20428;-45
2022/07/25 05:33:04;;;;;;;10.23;9.23;;;23.20;88.00;;;;;;7361129;19;20421;-45
2022/07/25 05:35:33;;;;;;;12.30;10.40;;;23.40;87.40;;;;;;7358923;19;20687;-46
2022/07/25 05:38:06;;;;;;;11.47;9.67;;;23.50;85.80;;;;;;7360458;19;20372;-45
2022/07/25 05:40:35;;;;;;;11.80;9.23;;;23.50;86.20;;;;;;7366917;19;20368;-45
2022/07/25 05:43:05;;;;;;;13.20;10.10;;;23.50;86.60;;;;;;7360889;19;20379;-45
2022/07/25 05:45:37;;;;;;;12.50;10.53;;;23.60;87.10;;;;;;7360155;19;20410;-45
2022/07/25 05:48:09;;;;;;;13.17;11.60;;;23.60;85.90;;;;;;7368147;19;20368;-46
2022/07/25 05:50:38;;;;;;;13.70;10.80;;;23.80;87.00;;;;;;7360527;19;20922;-45
2022/07/25 05:53:13;;;;;;;14.07;10.30;;;23.90;85.10;;;;;;7358181;19;21049;-45
2022/07/25 05:55:42;;;;;;;12.97;10.33;;;23.90;84.10;;;;;;7363914;19;20388;-45
2022/07/25 05:58:12;;;;;;;12.27;10.40;;;24.00;84.40;;;;;;7361932;19;20368;-45
2022/07/25 06:00:41;;;;;;;11.80;10.20;;;24.20;82.10;;;;;;7368290;19;20424;-50
2022/07/25 06:03:13;;;;;;;11.93;10.63;;;24.30;81.00;;;;;;7355696;19;20380;-50
2022/07/25 06:05:43;;;;;;;11.27;9.73;;;24.30;81.70;;;;;;7360699;19;20403;-50
2022/07/25 06:08:15;;;;;;;11.90;10.43;;;24.40;81.20;;;;;;7365290;19;20368;-50
2022/07/25 06:10:47;;;;;;;13.50;10.93;;;24.50;80.10;;;;;;7363113;19;20408;-50
2022/07/25 06:13:16;;;;;;;10.63;9.50;;;24.60;80.10;;;;;;7363099;19;20408;-50
2022/07/25 06:15:46;;;;;;;11.90;10.50;;;24.90;78.90;;;;;;7364232;19;20383;-50
2022/07/25 06:18:15;;;;;;;15.23;11.40;;;25.00;78.30;;;;;;7360770;19;20725;-50
2022/07/25 06:20:45;;;;;;;19.33;11.90;;;25.20;76.00;;;;;;7363809;19;20398;-50
2022/07/25 06:23:17;;;;;;;15.43;12.40;;;25.40;75.40;;;;;;7370704;19;20356;-50
2022/07/25 06:25:47;;;;;;;11.20;9.70;;;25.60;73.70;;;;;;7356647;19;20495;-50
2022/07/25 06:28:17;;;;;;;11.60;10.40;;;25.70;73.60;;;;;;7364717;19;21185;-50
2022/07/25 06:30:47;;;;;;;13.73;10.10;;;25.90;73.00;;;;;;7357724;19;21163;-46
2022/07/25 06:33:16;;;;;;;12.07;10.40;;;26.00;72.00;;;;;;7358693;19;20781;-46
2022/07/25 06:35:46;;;;;;;10.93;9.83;;;26.10;70.30;;;;;;7357623;19;20364;-46
2022/07/25 06:38:21;;;;;;;11.97;9.93;;;26.20;70.40;;;;;;7368745;19;20369;-45
2022/07/25 06:40:50;;;;;;;12.70;9.63;;;26.40;69.80;;;;;;7359768;19;20788;-45
2022/07/25 06:43:22;;;;;;;10.43;9.43;;;26.50;70.40;;;;;;7360010;19;20420;-46
2022/07/25 06:45:52;;;;;;;11.10;9.53;;;26.60;68.40;;;;;;7361207;19;20499;-46
2022/07/25 06:48:23;;;;;;;11.40;10.20;;;26.70;66.10;;;;;;7358143;19;20368;-46
2022/07/25 06:50:52;;;;;;;9.70;8.80;;;26.70;66.90;;;;;;7369886;19;20365;-46
2022/07/25 06:53:25;;;;;;;10.47;9.40;;;26.90;64.40;;;;;;7353273;19;20423;-46
2022/07/25 06:55:54;;;;;;;11.00;9.40;;;27.00;64.70;;;;;;7364548;19;20427;-46
2022/07/25 06:58:24;;;;;;;11.43;10.37;;;27.10;65.00;;;;;;7354763;19;20402;-46
2022/07/25 07:00:53;;;;;;;11.83;10.07;;;27.10;64.80;;;;;;7356866;19;20431;-46
2022/07/25 07:03:23;;;;;;;10.63;8.90;;;27.20;62.90;;;;;;7363748;19;20440;-46
2022/07/25 07:05:52;;;;;;;22.70;12.93;;;27.30;64.10;;;;;;7362930;19;20696;-47
2022/07/25 07:08:24;;;;;;;9.90;8.87;;;27.40;64.10;;;;;;7355128;19;20804;-45
2022/07/25 07:10:54;;;;;;;10.90;8.30;;;27.50;63.60;;;;;;7357281;19;20973;-46
2022/07/25 07:13:23;;;;;;;10.00;9.00;;;27.60;63.60;;;;;;7358768;19;20364;-46
2022/07/25 07:15:54;;;;;;;11.87;8.57;;;27.70;62.40;;;;;;7356456;19;20425;-46
2022/07/25 07:18:24;;;;;;;11.40;8.80;;;27.80;61.10;;;;;;7369565;19;20715;-46
2022/07/25 07:20:56;;;;;;;8.83;7.93;;;27.80;61.70;;;;;;7358285;19;20380;-46
2022/07/25 07:23:28;;;;;;;10.13;8.80;;;27.90;60.80;;;;;;7364092;19;20380;-46
2022/07/25 07:25:57;;;;;;;10.70;9.60;;;27.90;61.20;;;;;;7353551;19;20392;-46
2022/07/25 07:28:27;;;;;;;10.53;8.80;;;28.00;60.10;;;;;;7360113;19;20499;-46
2022/07/25 07:30:57;;;;;;;12.83;8.80;;;28.10;60.40;;;;;;7353870;19;20470;-46
2022/07/25 07:33:26;;;;;;;11.53;9.43;;;28.10;60.20;;;;;;7366680;19;20929;-46
2022/07/25 07:35:56;;;;;;;9.23;8.30;;;28.20;60.00;;;;;;7355566;19;20412;-46
2022/07/25 07:38:28;;;;;;;9.50;8.40;;;28.30;59.80;;;;;;7362073;19;20627;-46
2022/07/25 07:41:00;;;;;;;9.63;8.63;;;28.40;59.30;;;;;;7355062;19;21090;-46
2022/07/25 07:43:30;;;;;;;14.47;11.47;;;28.50;59.00;;;;;;7364243;19;20379;-46
2022/07/25 07:46:00;;;;;;;10.10;9.10;;;28.60;58.90;;;;;;7358818;19;20816;-46
2022/07/25 07:48:30;;;;;;;10.50;9.53;;;28.80;58.40;;;;;;7362255;19;20387;-46
2022/07/25 07:51:00;;;;;;;10.60;9.50;;;28.80;57.90;;;;;;7360709;19;20413;-46
2022/07/25 07:56:14;;;;;;;10.83;9.03;;;29.00;57.90;;;;;;7356378;19;20379;-46
2022/07/25 07:58:47;;;;;;;15.47;9.10;;;29.00;57.70;;;;;;7358612;19;20414;-46
2022/07/25 08:01:19;;;;;;;12.90;8.87;;;29.10;57.30;;;;;;7359913;19;21903;-51
2022/07/25 08:03:51;;;;;;;12.67;9.40;;;29.20;57.10;;;;;;7357852;19;20463;-51
2022/07/25 08:06:21;;;;;;;8.20;7.40;;;29.30;57.00;;;;;;7351798;19;20380;-52
2022/07/25 08:08:53;;;;;;;10.90;7.90;;;29.30;56.80;;;;;;7356393;19;20383;-51
2022/07/25 08:11:22;;;;;;;9.37;8.47;;;29.40;56.40;;;;;;7352869;19;21058;-51
2022/07/25 08:13:52;;;;;;;8.80;7.90;;;29.50;56.00;;;;;;7355882;19;20422;-51
2022/07/25 08:16:21;;;;;;;10.50;9.50;;;29.50;56.40;;;;;;7362813;19;20439;-51
2022/07/25 08:18:51;;;;;;;12.57;11.13;;;29.60;56.00;;;;;;7364584;19;20944;-51
2022/07/25 08:21:20;;;;;;;11.47;9.00;;;29.70;55.70;;;;;;7356778;19;20376;-51
2022/07/25 08:23:52;;;;;;;13.00;8.50;;;29.70;55.70;;;;;;7353374;19;20368;-51
2022/07/25 08:26:26;;;;;;;10.43;9.43;;;29.70;55.60;;;;;;7355496;19;20430;-51
2022/07/25 08:28:56;;;;;;;9.30;8.40;;;29.90;55.30;;;;;;7359584;19;20379;-51
2022/07/25 08:31:25;;;;;;;8.77;7.87;;;30.00;55.20;;;;;;7361665;19;20372;-51
2022/07/25 08:33:55;;;;;;;14.97;10.17;;;30.00;55.00;;;;;;7355224;19;20870;-52
2022/07/25 08:36:24;;;;;;;8.87;8.07;;;29.90;54.90;;;;;;7355750;19;20364;-53
2022/07/25 08:38:58;;;;;;;9.20;8.27;;;30.00;55.00;;;;;;7353926;19;20744;-51
2022/07/25 08:41:28;;;;;;;11.13;7.90;;;30.10;54.60;;;;;;7363168;19;20391;-51
2022/07/25 08:43:58;;;;;;;9.33;8.33;;;30.10;54.60;;;;;;7359193;19;21132;-51
2022/07/25 08:46:28;;;;;;;11.63;9.70;;;30.30;54.10;;;;;;7360692;19;20387;-51
2022/07/25 08:48:58;;;;;;;9.03;8.17;;;30.30;53.20;;;;;;7350900;19;20376;-51
2022/07/25 08:51:28;;;;;;;10.50;9.40;;;30.50;53.60;;;;;;7363661;19;20372;-51
2022/07/25 08:54:01;;;;;;;9.23;8.33;;;30.70;52.10;;;;;;7355035;19;20783;-51
2022/07/25 08:56:30;;;;;;;9.80;8.50;;;30.80;53.20;;;;;;7359546;19;21199;-53
2022/07/25 08:59:00;;;;;;;8.33;7.17;;;30.90;52.40;;;;;;7360809;19;20368;-51
2022/07/25 09:01:31;;;;;;;9.27;8.37;;;30.80;52.30;;;;;;7352094;19;20452;-52
2022/07/25 09:04:01;;;;;;;13.50;10.03;;;30.80;52.50;;;;;;7359908;19;20376;-51
2022/07/25 09:06:31;;;;;;;10.63;8.13;;;30.80;52.10;;;;;;7364627;19;20398;-51
2022/07/25 09:09:07;;;;;;;10.10;8.70;;;30.80;52.30;;;;;;7363225;19;20534;-51
2022/07/25 09:11:38;;;;;;;10.10;8.27;;;30.80;52.40;;;;;;7380823;19;20411;-51
2022/07/25 09:14:09;;;;;;;9.80;8.80;;;30.80;52.30;;;;;;7391539;19;20399;-51
2022/07/25 09:16:41;;;;;;;11.27;9.13;;;30.90;52.10;;;;;;7390561;19;20372;-51
2022/07/25 09:19:13;;;;;;;9.63;8.53;;;31.00;52.10;;;;;;7366093;19;20367;-51
2022/07/25 09:21:45;;;;;;;10.10;8.00;;;30.90;52.00;;;;;;7356522;19;20388;-52
2022/07/25 09:24:21;;;;;;;9.40;7.90;;;30.90;52.10;;;;;;7361561;19;20368;-51
2022/07/25 09:26:52;;;;;;;8.30;7.43;;;30.90;51.90;;;;;;7363231;19;20395;-51
2022/07/25 09:29:24;;;;;;;8.40;7.50;;;31.20;47.50;;;;;;7365207;19;20376;-51
2022/07/25 09:31:55;;;;;;;10.00;7.40;;;31.70;50.00;;;;;;7359462;19;20383;-51
2022/07/25 09:34:33;;;;;;;9.93;8.43;;;31.60;50.10;;;;;;7365970;19;20416;-51
2022/07/25 09:37:03;;;;;;;9.87;8.10;;;31.60;50.00;;;;;;7361390;19;20395;-51
2022/07/25 09:39:42;;;;;;;9.27;8.20;;;31.60;50.00;;;;;;7361370;19;20372;-51
2022/07/25 09:42:26;;;;;;;7.93;7.20;;;31.60;49.70;;;;;;7360184;19;20376;-51
2022/07/25 09:45:05;;;;;;;10.70;7.93;;;31.60;50.10;;;;;;7363900;19;20917;-51
2022/07/25 09:47:37;;;;;;;9.57;7.43;;;31.60;50.00;;;;;;7358511;19;21429;-51
2022/07/25 09:50:09;;;;;;;8.50;7.63;;;31.60;50.00;;;;;;7371503;19;20421;-51
2022/07/25 09:52:39;;;;;;;8.50;7.40;;;31.80;49.70;;;;;;7360296;19;20383;-51
2022/07/25 09:55:12;;;;;;;8.23;7.53;;;31.90;49.40;;;;;;7369354;19;20401;-51
2022/07/25 09:57:43;;;;;;;8.23;7.53;;;31.90;48.10;;;;;;7356537;19;20364;-52
2022/07/25 10:00:15;;;;;;;8.03;7.20;;;32.10;48.20;;;;;;7358595;19;20457;-52
2022/07/25 10:02:57;;;;;;;8.03;7.23;;;32.20;48.70;;;;;;7361330;19;20364;-52
2022/07/25 10:05:39;;;;;;;9.40;8.47;;;32.30;48.30;;;;;;7364688;19;20917;-51
2022/07/25 10:08:10;;;;;;;9.17;8.37;;;32.50;47.30;;;;;;7362437;19;20387;-52
2022/07/25 10:10:44;;;;;;;9.20;8.27;;;32.70;46.90;;;;;;7369748;19;20476;-51
2022/07/25 10:13:17;;;;;;;9.20;8.33;;;32.70;47.50;;;;;;7364086;19;20364;-51
2022/07/25 10:15:52;;;;;;;8.70;7.80;;;32.60;47.70;;;;;;7362168;19;20393;-51
2022/07/25 10:18:24;;;;;;;9.47;8.37;;;32.50;46.90;;;;;;7354688;19;20914;-52
2022/07/25 10:20:57;;;;;;;8.33;7.33;;;32.60;47.50;;;;;;7368509;19;20428;-51
2022/07/25 10:23:28;;;;;;;7.97;7.17;;;32.80;45.80;;;;;;7358352;19;20935;-52
2022/07/25 10:26:12;;;;;;;9.13;7.70;;;33.00;47.00;;;;;;7357469;19;21011;-52
2022/07/25 10:28:45;;;;;;;9.07;8.17;;;33.30;46.40;;;;;;7357871;19;20774;-51
2022/07/25 10:31:23;;;;;;;8.07;7.40;;;33.40;46.20;;;;;;7360875;19;20384;-53
2022/07/25 10:33:55;;;;;;;8.60;7.90;;;33.50;46.30;;;;;;7359585;19;20941;-51
2022/07/25 10:36:32;;;;;;;7.90;7.20;;;33.70;45.10;;;;;;7364704;19;20392;-51
2022/07/25 10:39:03;;;;;;;8.73;8.00;;;33.70;45.30;;;;;;7360262;19;20929;-53
2022/07/25 10:41:41;;;;;;;8.20;7.40;;;33.40;45.80;;;;;;7360489;19;20803;-51
2022/07/25 10:44:15;;;;;;;9.10;8.20;;;33.30;46.20;;;;;;7357928;19;20364;-51
2022/07/25 10:46:45;;;;;;;8.67;7.97;;;33.20;46.00;;;;;;7364124;19;20802;-51
2022/07/25 10:49:23;;;;;;;8.20;7.40;;;33.60;45.20;;;;;;7363948;19;20376;-51
2022/07/25 10:51:58;;;;;;;8.57;7.80;;;34.10;44.00;;;;;;7364237;19;20748;-51
2022/07/25 10:54:28;;;;;;;8.63;7.93;;;34.40;44.10;;;;;;7358183;19;20372;-51
2022/07/25 10:57:02;;;;;;;8.50;7.70;;;34.50;43.50;;;;;;7363046;19;20381;-51
2022/07/25 10:59:35;;;;;;;9.20;8.20;;;34.50;43.70;;;;;;7352008;19;20383;-51
2022/07/25 11:02:14;;;;;;;8.27;7.47;;;34.40;42.30;;;;;;7360305;19;20368;-51
2022/07/25 11:04:45;;;;;;;8.17;7.47;;;34.40;43.80;;;;;;7361525;19;20456;-52
2022/07/25 11:07:17;;;;;;;9.00;8.20;;;34.50;40.40;;;;;;7362692;19;20391;-51
2022/07/25 11:09:58;;;;;;;8.00;7.37;;;34.50;43.40;;;;;;7356707;19;20387;-52
2022/07/25 11:12:31;;;;;;;8.50;7.70;;;34.30;43.70;;;;;;7364423;19;20450;-51
2022/07/25 11:15:03;;;;;;;17.53;10.67;;;34.30;43.50;;;;;;7354771;19;20400;-52
2022/07/25 11:17:35;;;;;;;8.33;7.63;;;34.40;43.20;;;;;;7364994;19;20905;-51
2022/07/25 11:20:08;;;;;;;8.60;7.80;;;34.10;43.90;;;;;;7354098;19;20404;-52
2022/07/25 11:22:37;;;;;;;10.97;7.40;;;33.80;44.40;;;;;;7355753;19;21468;-51
2022/07/25 11:25:13;;;;;;;9.83;8.43;;;33.50;45.00;;;;;;7359172;19;20400;-51
2022/07/25 11:27:45;;;;;;;8.47;7.50;;;33.30;45.40;;;;;;7352226;19;20767;-51
2022/07/25 11:30:18;;;;;;;8.93;7.90;;;33.50;45.00;;;;;;7358540;19;20376;-51
2022/07/25 11:32:52;;;;;;;9.03;8.03;;;33.60;42.40;;;;;;7360042;19;20742;-51
2022/07/25 11:35:25;;;;;;;8.73;7.70;;;33.80;44.40;;;;;;7359307;19;20400;-51
2022/07/25 11:37:56;;;;;;;7.47;6.73;;;33.80;44.70;;;;;;7353445;19;20417;-51
2022/07/25 11:40:26;;;;;;;8.83;7.33;;;33.60;44.40;;;;;;7359967;19;20379;-51
2022/07/25 11:42:59;;;;;;;7.50;6.80;;;33.50;44.70;;;;;;7356336;19;20372;-52
2022/07/25 11:45:32;;;;;;;9.90;8.53;;;33.40;44.90;;;;;;7363737;19;20382;-51
2022/07/25 11:48:10;;;;;;;7.70;7.00;;;33.30;45.00;;;;;;7356559;19;21443;-53
2022/07/25 11:50:41;;;;;;;8.47;7.60;;;33.40;44.10;;;;;;7356862;19;21458;-51
2022/07/25 11:53:13;;;;;;;8.07;7.37;;;33.50;45.60;;;;;;7358076;19;20412;-51
2022/07/25 11:55:44;;;;;;;7.80;7.00;;;33.40;44.80;;;;;;7354060;19;21009;-53
2022/07/25 11:58:16;;;;;;;8.27;7.50;;;33.70;39.90;;;;;;7361114;19;21421;-52
2022/07/25 12:00:49;;;;;;;6.57;5.97;;;34.20;43.30;;;;;;7353745;19;20444;-51
2022/07/25 12:03:22;;;;;;;6.70;6.10;;;34.40;38.00;;;;;;7349511;19;20364;-52
2022/07/25 12:05:54;;;;;;;10.20;9.10;;;34.70;37.40;;;;;;7351812;19;20400;-52
2022/07/25 12:08:24;;;;;;;6.47;5.87;;;35.00;40.40;;;;;;7357082;19;20404;-51
2022/07/25 12:10:54;;;;;;;5.50;4.50;;;34.90;38.70;;;;;;7349925;19;20406;-51
2022/07/25 12:13:28;;;;;;;6.40;5.80;;;34.70;35.50;;;;;;7362685;19;20384;-52
2022/07/25 12:15:59;;;;;;;7.30;6.60;;;34.80;37.20;;;;;;7353944;19;20542;-53
2022/07/25 12:18:30;;;;;;;7.00;6.40;;;34.70;39.70;;;;;;7355691;19;20412;-52
2022/07/25 12:21:02;;;;;;;7.23;6.37;;;34.40;40.80;;;;;;7355892;19;20395;-51
2022/07/25 12:23:35;;;;;;;6.30;5.70;;;34.30;40.40;;;;;;7353142;19;21338;-51
2022/07/25 12:26:04;;;;;;;6.13;4.63;;;33.90;41.40;;;;;;7352877;19;20391;-52
2022/07/25 12:28:36;;;;;;;6.03;5.33;;;33.70;39.20;;;;;;7348380;19;20452;-51
2022/07/25 12:31:06;;;;;;;5.90;5.40;;;33.90;36.90;;;;;;7362087;19;20412;-51
2022/07/25 12:33:36;;;;;;;6.00;5.50;;;34.30;37.70;;;;;;7349375;19;20371;-52
2022/07/25 12:36:06;;;;;;;5.67;5.17;;;34.40;39.10;;;;;;7352162;19;20376;-52
2022/07/25 12:38:39;;;;;;;6.40;5.77;;;34.40;39.40;;;;;;7348682;19;20364;-51
2022/07/25 12:41:09;;;;;;;5.70;5.30;;;34.10;40.40;;;;;;7359321;19;20412;-52
2022/07/25 12:43:44;;;;;;;6.20;5.60;;;33.80;40.10;;;;;;7361757;19;20495;-52
2022/07/25 12:46:16;;;;;;;6.03;5.17;;;33.80;41.00;;;;;;7355907;19;21098;-52
2022/07/25 12:48:46;;;;;;;5.87;5.30;;;33.50;41.80;;;;;;7361027;19;20748;-51
2022/07/25 12:51:18;;;;;;;6.10;5.57;;;33.00;41.70;;;;;;7358367;19;20371;-52
2022/07/25 12:53:50;;;;;;;7.07;5.73;;;32.90;42.30;;;;;;7362780;19;20393;-52
2022/07/25 12:56:20;;;;;;;6.87;6.27;;;32.80;41.80;;;;;;7371610;19;20379;-52
2022/07/25 12:58:52;;;;;;;7.43;5.80;;;32.80;42.40;;;;;;7356620;19;20470;-52
2022/07/25 13:01:21;;;;;;;8.00;5.93;;;32.90;42.60;;;;;;7361607;19;20419;-52
2022/07/25 13:03:51;;;;;;;6.00;5.50;;;32.80;42.80;;;;;;7359602;19;20396;-52